sensor_id;sensor_type;location;lat;lon;timestamp;temperature;humidity
7411;DHT22;3747;48.628;9.058;2023-11-21T00:02:14;6.00;99.90
7411;DHT22;3747;48.628;9.058;2023-11-21T00:04:40;6.00;99.90
7411;DHT22;3747;48.628;9.058;2023-11-21T00:07:09;6.10;99.90
7411;DHT22;3747;48.628;9.058;2023-11-21T00:09:35;6.10;99.90
7411;DHT22;3747;48.628;9.058;2023-11-21T00:12:03;6.20;99.90
7411;DHT22;3747;48.628;9.058;2023-11-21T00:14:30;6.20;99.90
7411;DHT22;3747;48.628;9.058;2023-11-21T00:16:57;6.30;99.90
7411;DHT22;3747;48.628;9.058;2023-11-21T00:19:23;6.30;99.90
7411;DHT22;3747;48.628;9.058;2023-11-21T00:21:50;6.40;99.90
7411;DHT22;3747;48.628;9.058;2023-11-21T00:24:18;6.40;99.90
7411;DHT22;3747;48.628;9.058;2023-11-21T00:26:45;6.40;99.90
7411;DHT22;3747;48.628;9.058;2023-11-21T00:31:42;6.50;99.90
7411;DHT22;3747;48.628;9.058;2023-11-21T00:34:09;6.50;99.90
7411;DHT22;3747;48.628;9.058;2023-11-21T00:36:36;6.50;99.90
7411;DHT22;3747;48.628;9.058;2023-11-21T00:39:03;6.50;99.90
7411;DHT22;3747;48.628;9.058;2023-11-21T00:41:32;6.50;99.90
7411;DHT22;3747;48.628;9.058;2023-11-21T00:43:59;6.50;99.90
7411;DHT22;3747;48.628;9.058;2023-11-21T00:46:26;6.50;99.90
7411;DHT22;3747;48.628;9.058;2023-11-21T00:48:54;6.50;99.90
7411;DHT22;3747;48.628;9.058;2023-11-21T00:51:21;6.50;99.90
7411;DHT22;3747;48.628;9.058;2023-11-21T00:53:48;6.50;99.90
7411;DHT22;3747;48.628;9.058;2023-11-21T00:56:15;6.50;99.90
7411;DHT22;3747;48.628;9.058;2023-11-21T00:58:43;6.60;99.90
7411;DHT22;3747;48.628;9.058;2023-11-21T01:01:12;6.60;99.90
7411;DHT22;3747;48.628;9.058;2023-11-21T01:03:38;6.60;99.90
7411;DHT22;3747;48.628;9.058;2023-11-21T01:06:05;6.60;99.90
7411;DHT22;3747;48.628;9.058;2023-11-21T01:08:33;6.60;99.90
7411;DHT22;3747;48.628;9.058;2023-11-21T01:11:00;6.60;99.90
7411;DHT22;3747;48.628;9.058;2023-11-21T01:13:26;6.60;99.90
7411;DHT22;3747;48.628;9.058;2023-11-21T01:15:56;6.50;99.90
7411;DHT22;3747;48.628;9.058;2023-11-21T01:18:22;6.50;99.90
7411;DHT22;3747;48.628;9.058;2023-11-21T01:20:51;6.40;99.90
7411;DHT22;3747;48.628;9.058;2023-11-21T01:23:19;6.40;99.90
7411;DHT22;3747;48.628;9.058;2023-11-21T01:25:45;6.40;99.90
7411;DHT22;3747;48.628;9.058;2023-11-21T01:28:12;6.40;99.90
7411;DHT22;3747;48.628;9.058;2023-11-21T01:30:39;6.30;99.90
7411;DHT22;3747;48.628;9.058;2023-11-21T01:33:07;6.20;99.90
7411;DHT22;3747;48.628;9.058;2023-11-21T01:35:34;6.30;99.90
7411;DHT22;3747;48.628;9.058;2023-11-21T01:38:01;6.30;99.90
7411;DHT22;3747;48.628;9.058;2023-11-21T01:40:29;6.30;99.90
7411;DHT22;3747;48.628;9.058;2023-11-21T01:42:56;6.30;99.90
7411;DHT22;3747;48.628;9.058;2023-11-21T01:45:23;6.40;99.90
7411;DHT22;3747;48.628;9.058;2023-11-21T01:47:51;6.40;99.90
7411;DHT22;3747;48.628;9.058;2023-11-21T01:50:20;6.40;99.90
7411;DHT22;3747;48.628;9.058;2023-11-21T01:52:48;6.40;99.90
7411;DHT22;3747;48.628;9.058;2023-11-21T01:55:16;6.40;99.90
7411;DHT22;3747;48.628;9.058;2023-11-21T01:57:45;6.40;99.90
7411;DHT22;3747;48.628;9.058;2023-11-21T02:00:13;6.30;99.90
7411;DHT22;3747;48.628;9.058;2023-11-21T02:02:42;6.20;99.90
7411;DHT22;3747;48.628;9.058;2023-11-21T02:05:10;6.20;99.90
7411;DHT22;3747;48.628;9.058;2023-11-21T02:07:39;6.20;99.90
7411;DHT22;3747;48.628;9.058;2023-11-21T02:10:07;6.20;99.90
7411;DHT22;3747;48.628;9.058;2023-11-21T02:12:34;6.20;99.90
7411;DHT22;3747;48.628;9.058;2023-11-21T02:15:02;6.10;99.90
7411;DHT22;3747;48.628;9.058;2023-11-21T02:17:30;6.10;99.90
7411;DHT22;3747;48.628;9.058;2023-11-21T02:19:58;6.10;99.90
7411;DHT22;3747;48.628;9.058;2023-11-21T02:22:26;6.10;99.90
7411;DHT22;3747;48.628;9.058;2023-11-21T02:24:57;6.10;99.90
7411;DHT22;3747;48.628;9.058;2023-11-21T02:27:24;6.10;99.90
7411;DHT22;3747;48.628;9.058;2023-11-21T02:29:52;6.20;99.90
7411;DHT22;3747;48.628;9.058;2023-11-21T02:32:19;6.10;99.90
7411;DHT22;3747;48.628;9.058;2023-11-21T02:34:48;6.20;99.90
7411;DHT22;3747;48.628;9.058;2023-11-21T02:37:15;6.10;99.90
7411;DHT22;3747;48.628;9.058;2023-11-21T02:39:42;6.10;99.90
7411;DHT22;3747;48.628;9.058;2023-11-21T02:42:10;6.10;99.90
7411;DHT22;3747;48.628;9.058;2023-11-21T02:44:36;6.00;99.90
7411;DHT22;3747;48.628;9.058;2023-11-21T02:47:03;5.90;99.90
7411;DHT22;3747;48.628;9.058;2023-11-21T02:49:30;6.00;99.90
7411;DHT22;3747;48.628;9.058;2023-11-21T02:51:57;6.00;99.90
7411;DHT22;3747;48.628;9.058;2023-11-21T02:54:24;6.10;99.90
7411;DHT22;3747;48.628;9.058;2023-11-21T02:56:52;6.10;99.90
7411;DHT22;3747;48.628;9.058;2023-11-21T02:59:20;6.20;99.90
7411;DHT22;3747;48.628;9.058;2023-11-21T03:01:47;6.20;99.90
7411;DHT22;3747;48.628;9.058;2023-11-21T03:04:15;6.10;99.90
7411;DHT22;3747;48.628;9.058;2023-11-21T03:06:43;6.20;99.90
7411;DHT22;3747;48.628;9.058;2023-11-21T03:09:10;6.10;99.90
7411;DHT22;3747;48.628;9.058;2023-11-21T03:11:38;6.00;99.90
7411;DHT22;3747;48.628;9.058;2023-11-21T03:14:05;6.00;99.90
7411;DHT22;3747;48.628;9.058;2023-11-21T03:16:33;6.00;99.90
7411;DHT22;3747;48.628;9.058;2023-11-21T03:19:00;5.90;99.90
7411;DHT22;3747;48.628;9.058;2023-11-21T03:21:26;5.90;99.90
7411;DHT22;3747;48.628;9.058;2023-11-21T03:23:53;5.80;99.90
7411;DHT22;3747;48.628;9.058;2023-11-21T03:26:20;5.90;99.90
7411;DHT22;3747;48.628;9.058;2023-11-21T03:28:46;5.80;99.90
7411;DHT22;3747;48.628;9.058;2023-11-21T03:31:13;5.80;99.90
7411;DHT22;3747;48.628;9.058;2023-11-21T03:33:42;5.80;99.90
7411;DHT22;3747;48.628;9.058;2023-11-21T03:36:11;5.80;99.90
7411;DHT22;3747;48.628;9.058;2023-11-21T03:38:37;5.80;99.90
7411;DHT22;3747;48.628;9.058;2023-11-21T03:41:05;5.80;99.90
7411;DHT22;3747;48.628;9.058;2023-11-21T03:43:32;5.70;99.90
7411;DHT22;3747;48.628;9.058;2023-11-21T03:45:58;5.70;99.90
7411;DHT22;3747;48.628;9.058;2023-11-21T03:48:25;5.70;99.90
7411;DHT22;3747;48.628;9.058;2023-11-21T03:50:53;5.70;99.90
7411;DHT22;3747;48.628;9.058;2023-11-21T03:53:20;5.80;99.90
7411;DHT22;3747;48.628;9.058;2023-11-21T03:55:47;5.80;99.90
7411;DHT22;3747;48.628;9.058;2023-11-21T03:58:14;5.80;99.90
7411;DHT22;3747;48.628;9.058;2023-11-21T04:00:41;5.80;99.90
7411;DHT22;3747;48.628;9.058;2023-11-21T04:03:08;5.90;99.90
7411;DHT22;3747;48.628;9.058;2023-11-21T04:05:34;5.90;99.90
7411;DHT22;3747;48.628;9.058;2023-11-21T04:08:03;5.90;99.90
7411;DHT22;3747;48.628;9.058;2023-11-21T04:10:29;6.00;99.90
7411;DHT22;3747;48.628;9.058;2023-11-21T04:12:56;6.00;99.90
7411;DHT22;3747;48.628;9.058;2023-11-21T04:15:23;6.00;99.90
7411;DHT22;3747;48.628;9.058;2023-11-21T04:17:50;6.00;99.90
7411;DHT22;3747;48.628;9.058;2023-11-21T04:20:16;6.00;99.90
7411;DHT22;3747;48.628;9.058;2023-11-21T04:22:44;6.00;99.90
7411;DHT22;3747;48.628;9.058;2023-11-21T04:25:14;6.10;99.90
7411;DHT22;3747;48.628;9.058;2023-11-21T04:27:42;6.10;99.90
7411;DHT22;3747;48.628;9.058;2023-11-21T04:30:10;6.10;99.90
7411;DHT22;3747;48.628;9.058;2023-11-21T04:32:37;6.10;99.90
7411;DHT22;3747;48.628;9.058;2023-11-21T04:35:05;6.10;99.90
7411;DHT22;3747;48.628;9.058;2023-11-21T04:37:32;6.10;99.90
7411;DHT22;3747;48.628;9.058;2023-11-21T04:39:58;6.10;99.90
7411;DHT22;3747;48.628;9.058;2023-11-21T04:42:26;6.20;99.90
7411;DHT22;3747;48.628;9.058;2023-11-21T04:44:54;6.20;99.90
7411;DHT22;3747;48.628;9.058;2023-11-21T04:47:21;6.10;99.90
7411;DHT22;3747;48.628;9.058;2023-11-21T04:49:48;6.10;99.90
7411;DHT22;3747;48.628;9.058;2023-11-21T04:52:14;6.10;99.90
7411;DHT22;3747;48.628;9.058;2023-11-21T04:54:41;6.10;99.90
7411;DHT22;3747;48.628;9.058;2023-11-21T04:57:08;6.10;99.90
7411;DHT22;3747;48.628;9.058;2023-11-21T04:59:36;6.10;99.90
7411;DHT22;3747;48.628;9.058;2023-11-21T05:02:03;6.10;99.90
7411;DHT22;3747;48.628;9.058;2023-11-21T05:04:30;6.10;99.90
7411;DHT22;3747;48.628;9.058;2023-11-21T05:06:57;6.10;99.90
7411;DHT22;3747;48.628;9.058;2023-11-21T05:09:24;6.10;99.90
7411;DHT22;3747;48.628;9.058;2023-11-21T05:11:50;6.10;99.90
7411;DHT22;3747;48.628;9.058;2023-11-21T05:14:18;6.10;99.90
7411;DHT22;3747;48.628;9.058;2023-11-21T05:16:46;6.20;99.90
7411;DHT22;3747;48.628;9.058;2023-11-21T05:19:13;6.10;99.90
7411;DHT22;3747;48.628;9.058;2023-11-21T05:21:40;6.20;99.90
7411;DHT22;3747;48.628;9.058;2023-11-21T05:24:07;6.20;99.90
7411;DHT22;3747;48.628;9.058;2023-11-21T05:26:34;6.20;99.90
7411;DHT22;3747;48.628;9.058;2023-11-21T05:29:01;6.20;99.90
7411;DHT22;3747;48.628;9.058;2023-11-21T05:31:28;6.20;99.90
7411;DHT22;3747;48.628;9.058;2023-11-21T05:33:56;6.20;99.90
7411;DHT22;3747;48.628;9.058;2023-11-21T05:36:22;6.20;99.90
7411;DHT22;3747;48.628;9.058;2023-11-21T05:38:49;6.20;99.90
7411;DHT22;3747;48.628;9.058;2023-11-21T05:41:16;6.20;99.90
7411;DHT22;3747;48.628;9.058;2023-11-21T05:43:42;6.20;99.90
7411;DHT22;3747;48.628;9.058;2023-11-21T05:46:09;6.20;99.90
7411;DHT22;3747;48.628;9.058;2023-11-21T05:48:36;6.20;99.90
7411;DHT22;3747;48.628;9.058;2023-11-21T05:51:05;6.20;99.90
7411;DHT22;3747;48.628;9.058;2023-11-21T05:53:33;6.20;99.90
7411;DHT22;3747;48.628;9.058;2023-11-21T05:56:00;6.20;99.90
7411;DHT22;3747;48.628;9.058;2023-11-21T05:58:26;6.20;99.90
7411;DHT22;3747;48.628;9.058;2023-11-21T06:00:53;6.20;99.90
7411;DHT22;3747;48.628;9.058;2023-11-21T06:03:20;6.20;99.90
7411;DHT22;3747;48.628;9.058;2023-11-21T06:05:48;6.20;99.90
7411;DHT22;3747;48.628;9.058;2023-11-21T06:08:16;6.20;99.90
7411;DHT22;3747;48.628;9.058;2023-11-21T06:10:44;6.20;99.90
7411;DHT22;3747;48.628;9.058;2023-11-21T06:13:14;6.20;99.90
7411;DHT22;3747;48.628;9.058;2023-11-21T06:15:41;6.20;99.90
7411;DHT22;3747;48.628;9.058;2023-11-21T06:18:08;6.10;99.90
7411;DHT22;3747;48.628;9.058;2023-11-21T06:20:36;6.10;99.90
7411;DHT22;3747;48.628;9.058;2023-11-21T06:23:03;6.10;99.90
7411;DHT22;3747;48.628;9.058;2023-11-21T06:25:32;6.10;99.90
7411;DHT22;3747;48.628;9.058;2023-11-21T06:28:02;6.10;99.90
7411;DHT22;3747;48.628;9.058;2023-11-21T06:30:28;6.10;99.90
7411;DHT22;3747;48.628;9.058;2023-11-21T06:32:55;6.10;99.90
7411;DHT22;3747;48.628;9.058;2023-11-21T06:35:22;6.10;99.90
7411;DHT22;3747;48.628;9.058;2023-11-21T06:37:49;6.10;99.90
7411;DHT22;3747;48.628;9.058;2023-11-21T06:40:17;6.10;99.90
7411;DHT22;3747;48.628;9.058;2023-11-21T06:42:46;6.10;99.90
7411;DHT22;3747;48.628;9.058;2023-11-21T06:45:13;6.10;99.90
7411;DHT22;3747;48.628;9.058;2023-11-21T06:47:40;6.10;99.90
7411;DHT22;3747;48.628;9.058;2023-11-21T06:50:07;6.20;99.90
7411;DHT22;3747;48.628;9.058;2023-11-21T06:52:34;6.20;99.90
7411;DHT22;3747;48.628;9.058;2023-11-21T06:55:01;6.20;99.90
7411;DHT22;3747;48.628;9.058;2023-11-21T06:57:28;6.20;99.90
7411;DHT22;3747;48.628;9.058;2023-11-21T06:59:56;6.20;99.90
7411;DHT22;3747;48.628;9.058;2023-11-21T07:02:23;6.20;99.90
7411;DHT22;3747;48.628;9.058;2023-11-21T07:04:50;6.20;99.90
7411;DHT22;3747;48.628;9.058;2023-11-21T07:07:18;6.20;99.90
7411;DHT22;3747;48.628;9.058;2023-11-21T07:09:45;6.20;99.90
7411;DHT22;3747;48.628;9.058;2023-11-21T07:12:11;6.20;99.90
7411;DHT22;3747;48.628;9.058;2023-11-21T07:14:39;6.20;99.90
7411;DHT22;3747;48.628;9.058;2023-11-21T07:17:10;6.30;99.90
7411;DHT22;3747;48.628;9.058;2023-11-21T07:19:37;6.30;99.90
7411;DHT22;3747;48.628;9.058;2023-11-21T07:22:04;6.30;99.90
7411;DHT22;3747;48.628;9.058;2023-11-21T07:24:31;6.40;99.90
7411;DHT22;3747;48.628;9.058;2023-11-21T07:26:58;6.40;99.90
7411;DHT22;3747;48.628;9.058;2023-11-21T07:29:24;6.40;99.90
7411;DHT22;3747;48.628;9.058;2023-11-21T07:31:51;6.40;99.90
7411;DHT22;3747;48.628;9.058;2023-11-21T07:34:20;6.40;99.90
7411;DHT22;3747;48.628;9.058;2023-11-21T07:36:47;6.40;99.90
7411;DHT22;3747;48.628;9.058;2023-11-21T07:39:16;6.50;99.90
7411;DHT22;3747;48.628;9.058;2023-11-21T07:41:43;6.50;99.90
7411;DHT22;3747;48.628;9.058;2023-11-21T07:44:14;6.50;99.90
7411;DHT22;3747;48.628;9.058;2023-11-21T07:46:42;6.50;99.90
7411;DHT22;3747;48.628;9.058;2023-11-21T07:49:08;6.50;99.90
7411;DHT22;3747;48.628;9.058;2023-11-21T07:51:37;6.50;99.90
7411;DHT22;3747;48.628;9.058;2023-11-21T07:54:04;6.50;99.90
7411;DHT22;3747;48.628;9.058;2023-11-21T07:56:31;6.50;99.90
7411;DHT22;3747;48.628;9.058;2023-11-21T07:58:57;6.50;99.90
7411;DHT22;3747;48.628;9.058;2023-11-21T08:01:24;6.50;99.90
7411;DHT22;3747;48.628;9.058;2023-11-21T08:03:51;6.50;99.90
7411;DHT22;3747;48.628;9.058;2023-11-21T08:06:18;6.50;99.90
7411;DHT22;3747;48.628;9.058;2023-11-21T08:08:46;6.50;99.90
7411;DHT22;3747;48.628;9.058;2023-11-21T08:11:13;6.50;99.90
7411;DHT22;3747;48.628;9.058;2023-11-21T08:13:39;6.50;99.90
7411;DHT22;3747;48.628;9.058;2023-11-21T08:16:07;6.60;99.90
7411;DHT22;3747;48.628;9.058;2023-11-21T08:18:34;6.60;99.90
7411;DHT22;3747;48.628;9.058;2023-11-21T08:21:01;6.60;99.90
7411;DHT22;3747;48.628;9.058;2023-11-21T08:23:28;6.60;99.90
7411;DHT22;3747;48.628;9.058;2023-11-21T08:25:56;6.60;99.90
7411;DHT22;3747;48.628;9.058;2023-11-21T08:28:23;6.70;99.90
7411;DHT22;3747;48.628;9.058;2023-11-21T08:30:51;6.80;99.90
7411;DHT22;3747;48.628;9.058;2023-11-21T08:33:19;6.80;99.90
7411;DHT22;3747;48.628;9.058;2023-11-21T08:35:46;6.90;99.90
7411;DHT22;3747;48.628;9.058;2023-11-21T08:38:12;6.90;99.90
7411;DHT22;3747;48.628;9.058;2023-11-21T08:40:38;7.00;99.90
7411;DHT22;3747;48.628;9.058;2023-11-21T08:43:06;7.00;99.90
7411;DHT22;3747;48.628;9.058;2023-11-21T08:45:33;7.00;99.90
7411;DHT22;3747;48.628;9.058;2023-11-21T08:48:00;7.10;99.90
7411;DHT22;3747;48.628;9.058;2023-11-21T08:50:27;7.10;99.90
7411;DHT22;3747;48.628;9.058;2023-11-21T08:52:54;7.20;99.90
7411;DHT22;3747;48.628;9.058;2023-11-21T08:55:21;7.30;99.90
7411;DHT22;3747;48.628;9.058;2023-11-21T08:57:48;7.40;99.90
7411;DHT22;3747;48.628;9.058;2023-11-21T09:00:17;7.60;99.90
7411;DHT22;3747;48.628;9.058;2023-11-21T09:02:44;7.80;99.90
7411;DHT22;3747;48.628;9.058;2023-11-21T09:05:13;8.00;99.90
7411;DHT22;3747;48.628;9.058;2023-11-21T09:07:41;8.30;99.90
7411;DHT22;3747;48.628;9.058;2023-11-21T09:10:08;8.50;99.90
7411;DHT22;3747;48.628;9.058;2023-11-21T09:12:35;8.60;99.90
7411;DHT22;3747;48.628;9.058;2023-11-21T09:15:03;8.80;99.90
7411;DHT22;3747;48.628;9.058;2023-11-21T09:17:32;8.70;99.90
7411;DHT22;3747;48.628;9.058;2023-11-21T09:20:01;8.50;99.90
7411;DHT22;3747;48.628;9.058;2023-11-21T09:22:31;8.40;99.90
7411;DHT22;3747;48.628;9.058;2023-11-21T09:24:57;8.30;99.90
7411;DHT22;3747;48.628;9.058;2023-11-21T09:27:28;8.20;99.90
7411;DHT22;3747;48.628;9.058;2023-11-21T09:30:01;8.10;99.90
7411;DHT22;3747;48.628;9.058;2023-11-21T09:32:32;8.20;99.90
7411;DHT22;3747;48.628;9.058;2023-11-21T09:34:58;8.10;99.90
7411;DHT22;3747;48.628;9.058;2023-11-21T09:37:27;8.10;99.90
7411;DHT22;3747;48.628;9.058;2023-11-21T09:39:54;8.00;99.90
7411;DHT22;3747;48.628;9.058;2023-11-21T09:42:25;8.10;99.90
7411;DHT22;3747;48.628;9.058;2023-11-21T09:45:00;8.10;99.90
7411;DHT22;3747;48.628;9.058;2023-11-21T09:47:31;8.20;99.90
7411;DHT22;3747;48.628;9.058;2023-11-21T09:50:00;8.10;99.90
7411;DHT22;3747;48.628;9.058;2023-11-21T09:52:28;8.10;99.90
7411;DHT22;3747;48.628;9.058;2023-11-21T09:54:56;8.00;99.90
7411;DHT22;3747;48.628;9.058;2023-11-21T09:57:23;7.90;99.90
7411;DHT22;3747;48.628;9.058;2023-11-21T09:59:51;8.00;99.90
7411;DHT22;3747;48.628;9.058;2023-11-21T10:02:22;7.90;99.90
7411;DHT22;3747;48.628;9.058;2023-11-21T10:04:52;7.90;99.90
7411;DHT22;3747;48.628;9.058;2023-11-21T10:07:20;7.90;99.90
7411;DHT22;3747;48.628;9.058;2023-11-21T10:09:47;8.00;99.90
7411;DHT22;3747;48.628;9.058;2023-11-21T10:12:15;8.10;99.90
7411;DHT22;3747;48.628;9.058;2023-11-21T10:14:42;8.10;99.90
7411;DHT22;3747;48.628;9.058;2023-11-21T10:17:10;8.10;99.90
7411;DHT22;3747;48.628;9.058;2023-11-21T10:19:39;8.00;99.90
7411;DHT22;3747;48.628;9.058;2023-11-21T10:22:07;8.00;99.90
7411;DHT22;3747;48.628;9.058;2023-11-21T10:24:35;8.00;99.90
7411;DHT22;3747;48.628;9.058;2023-11-21T10:27:03;7.90;99.90
7411;DHT22;3747;48.628;9.058;2023-11-21T10:29:36;7.80;99.90
7411;DHT22;3747;48.628;9.058;2023-11-21T10:32:03;7.70;99.90
7411;DHT22;3747;48.628;9.058;2023-11-21T10:34:31;7.70;99.90
7411;DHT22;3747;48.628;9.058;2023-11-21T10:36:59;7.70;99.90
7411;DHT22;3747;48.628;9.058;2023-11-21T10:39:39;7.70;99.90
7411;DHT22;3747;48.628;9.058;2023-11-21T10:42:08;7.70;99.90
7411;DHT22;3747;48.628;9.058;2023-11-21T10:44:35;7.70;99.90
7411;DHT22;3747;48.628;9.058;2023-11-21T10:47:03;7.70;99.90
7411;DHT22;3747;48.628;9.058;2023-11-21T10:49:30;7.70;99.90
7411;DHT22;3747;48.628;9.058;2023-11-21T10:51:57;7.60;99.90
7411;DHT22;3747;48.628;9.058;2023-11-21T10:54:25;7.70;99.90
7411;DHT22;3747;48.628;9.058;2023-11-21T10:56:59;7.80;99.90
7411;DHT22;3747;48.628;9.058;2023-11-21T10:59:29;7.70;99.90
7411;DHT22;3747;48.628;9.058;2023-11-21T11:01:58;7.70;99.90
7411;DHT22;3747;48.628;9.058;2023-11-21T11:04:27;7.70;99.90
7411;DHT22;3747;48.628;9.058;2023-11-21T11:06:56;7.80;99.90
7411;DHT22;3747;48.628;9.058;2023-11-21T11:09:24;7.90;99.90
7411;DHT22;3747;48.628;9.058;2023-11-21T11:11:51;8.00;99.90
7411;DHT22;3747;48.628;9.058;2023-11-21T11:14:20;8.10;99.90
7411;DHT22;3747;48.628;9.058;2023-11-21T11:16:52;8.10;99.90
7411;DHT22;3747;48.628;9.058;2023-11-21T11:19:19;8.10;99.90
7411;DHT22;3747;48.628;9.058;2023-11-21T11:21:53;8.10;99.90
7411;DHT22;3747;48.628;9.058;2023-11-21T11:24:41;8.10;99.90
7411;DHT22;3747;48.628;9.058;2023-11-21T11:27:15;8.00;99.90
7411;DHT22;3747;48.628;9.058;2023-11-21T11:29:55;7.90;99.90
7411;DHT22;3747;48.628;9.058;2023-11-21T11:32:37;7.90;99.90
7411;DHT22;3747;48.628;9.058;2023-11-21T11:35:12;8.00;99.90
7411;DHT22;3747;48.628;9.058;2023-11-21T11:37:43;8.00;99.90
7411;DHT22;3747;48.628;9.058;2023-11-21T11:40:11;7.90;99.90
7411;DHT22;3747;48.628;9.058;2023-11-21T11:42:38;7.90;99.90
7411;DHT22;3747;48.628;9.058;2023-11-21T11:45:18;7.90;99.90
7411;DHT22;3747;48.628;9.058;2023-11-21T11:47:47;7.90;99.90
7411;DHT22;3747;48.628;9.058;2023-11-21T11:50:14;7.90;99.90
7411;DHT22;3747;48.628;9.058;2023-11-21T11:52:43;8.00;99.90
7411;DHT22;3747;48.628;9.058;2023-11-21T11:55:11;7.90;99.90
7411;DHT22;3747;48.628;9.058;2023-11-21T11:57:39;7.90;99.90
7411;DHT22;3747;48.628;9.058;2023-11-21T12:00:11;7.90;99.90
7411;DHT22;3747;48.628;9.058;2023-11-21T12:02:39;7.90;99.90
7411;DHT22;3747;48.628;9.058;2023-11-21T12:05:10;7.80;99.90
7411;DHT22;3747;48.628;9.058;2023-11-21T12:07:45;7.70;99.90
7411;DHT22;3747;48.628;9.058;2023-11-21T12:10:14;7.80;99.90
7411;DHT22;3747;48.628;9.058;2023-11-21T12:12:47;7.90;99.90
7411;DHT22;3747;48.628;9.058;2023-11-21T12:15:15;7.80;99.90
7411;DHT22;3747;48.628;9.058;2023-11-21T12:17:43;7.90;99.90
7411;DHT22;3747;48.628;9.058;2023-11-21T12:20:11;7.90;99.90
7411;DHT22;3747;48.628;9.058;2023-11-21T12:22:43;8.10;99.90
7411;DHT22;3747;48.628;9.058;2023-11-21T12:25:15;8.10;99.90
7411;DHT22;3747;48.628;9.058;2023-11-21T12:27:44;8.10;99.90
7411;DHT22;3747;48.628;9.058;2023-11-21T12:30:12;8.00;99.90
7411;DHT22;3747;48.628;9.058;2023-11-21T12:32:42;8.00;99.90
7411;DHT22;3747;48.628;9.058;2023-11-21T12:35:11;7.90;99.90
7411;DHT22;3747;48.628;9.058;2023-11-21T12:37:39;7.90;99.90
7411;DHT22;3747;48.628;9.058;2023-11-21T12:40:09;8.00;99.90
7411;DHT22;3747;48.628;9.058;2023-11-21T12:42:37;7.90;99.90
7411;DHT22;3747;48.628;9.058;2023-11-21T12:45:09;7.80;99.90
7411;DHT22;3747;48.628;9.058;2023-11-21T12:47:43;7.80;99.90
7411;DHT22;3747;48.628;9.058;2023-11-21T12:50:10;7.80;99.90
7411;DHT22;3747;48.628;9.058;2023-11-21T12:52:44;7.90;99.90
7411;DHT22;3747;48.628;9.058;2023-11-21T12:55:14;7.80;99.90
7411;DHT22;3747;48.628;9.058;2023-11-21T12:57:43;7.80;99.90
7411;DHT22;3747;48.628;9.058;2023-11-21T13:00:11;7.60;99.90
7411;DHT22;3747;48.628;9.058;2023-11-21T13:02:51;7.60;99.90
7411;DHT22;3747;48.628;9.058;2023-11-21T13:05:24;7.70;99.90
7411;DHT22;3747;48.628;9.058;2023-11-21T13:07:51;7.60;99.90
7411;DHT22;3747;48.628;9.058;2023-11-21T13:10:21;7.70;99.90
7411;DHT22;3747;48.628;9.058;2023-11-21T13:12:54;7.60;99.90
7411;DHT22;3747;48.628;9.058;2023-11-21T13:15:23;7.60;99.90
7411;DHT22;3747;48.628;9.058;2023-11-21T13:17:51;7.70;99.90
7411;DHT22;3747;48.628;9.058;2023-11-21T13:20:19;7.70;99.90
7411;DHT22;3747;48.628;9.058;2023-11-21T13:22:47;7.80;99.90
7411;DHT22;3747;48.628;9.058;2023-11-21T13:25:15;7.80;99.90
7411;DHT22;3747;48.628;9.058;2023-11-21T13:27:43;7.90;99.90
7411;DHT22;3747;48.628;9.058;2023-11-21T13:30:12;8.00;99.90
7411;DHT22;3747;48.628;9.058;2023-11-21T13:32:40;8.10;99.90
7411;DHT22;3747;48.628;9.058;2023-11-21T13:35:09;8.20;99.90
7411;DHT22;3747;48.628;9.058;2023-11-21T13:37:45;8.20;99.90
7411;DHT22;3747;48.628;9.058;2023-11-21T13:40:11;8.20;99.90
7411;DHT22;3747;48.628;9.058;2023-11-21T13:42:40;8.30;99.90
7411;DHT22;3747;48.628;9.058;2023-11-21T13:45:09;8.30;99.90
7411;DHT22;3747;48.628;9.058;2023-11-21T13:47:37;8.40;99.90
7411;DHT22;3747;48.628;9.058;2023-11-21T13:50:06;8.40;99.90
7411;DHT22;3747;48.628;9.058;2023-11-21T13:52:44;8.40;99.90
7411;DHT22;3747;48.628;9.058;2023-11-21T13:55:11;8.40;99.90
7411;DHT22;3747;48.628;9.058;2023-11-21T13:57:41;8.30;99.90
7411;DHT22;3747;48.628;9.058;2023-11-21T14:00:11;8.20;99.90
7411;DHT22;3747;48.628;9.058;2023-11-21T14:02:58;7.90;99.90
7411;DHT22;3747;48.628;9.058;2023-11-21T14:05:26;7.60;99.90
7411;DHT22;3747;48.628;9.058;2023-11-21T14:07:56;7.30;99.90
7411;DHT22;3747;48.628;9.058;2023-11-21T14:10:28;7.30;99.90
7411;DHT22;3747;48.628;9.058;2023-11-21T14:13:02;7.20;99.90
7411;DHT22;3747;48.628;9.058;2023-11-21T14:15:29;7.10;99.90
7411;DHT22;3747;48.628;9.058;2023-11-21T14:17:58;7.00;99.90
7411;DHT22;3747;48.628;9.058;2023-11-21T14:20:28;6.90;99.90
7411;DHT22;3747;48.628;9.058;2023-11-21T14:22:56;6.90;99.90
7411;DHT22;3747;48.628;9.058;2023-11-21T14:25:23;6.90;99.90
7411;DHT22;3747;48.628;9.058;2023-11-21T14:27:50;6.90;99.90
7411;DHT22;3747;48.628;9.058;2023-11-21T14:30:17;6.90;99.90
7411;DHT22;3747;48.628;9.058;2023-11-21T14:32:47;6.90;99.90
7411;DHT22;3747;48.628;9.058;2023-11-21T14:35:15;6.90;99.90
7411;DHT22;3747;48.628;9.058;2023-11-21T14:37:41;6.90;99.90
7411;DHT22;3747;48.628;9.058;2023-11-21T14:40:11;7.00;99.90
7411;DHT22;3747;48.628;9.058;2023-11-21T14:42:41;7.00;99.90
7411;DHT22;3747;48.628;9.058;2023-11-21T14:45:09;7.10;99.90
7411;DHT22;3747;48.628;9.058;2023-11-21T14:47:37;7.20;99.90
7411;DHT22;3747;48.628;9.058;2023-11-21T14:50:10;7.20;99.90
7411;DHT22;3747;48.628;9.058;2023-11-21T14:53:04;7.20;99.90
7411;DHT22;3747;48.628;9.058;2023-11-21T14:55:33;7.20;99.90
7411;DHT22;3747;48.628;9.058;2023-11-21T14:58:13;7.20;99.90
7411;DHT22;3747;48.628;9.058;2023-11-21T15:00:42;7.20;99.90
7411;DHT22;3747;48.628;9.058;2023-11-21T15:03:11;7.20;99.90
7411;DHT22;3747;48.628;9.058;2023-11-21T15:05:47;7.30;99.90
7411;DHT22;3747;48.628;9.058;2023-11-21T15:08:15;7.20;99.90
7411;DHT22;3747;48.628;9.058;2023-11-21T15:10:48;7.20;99.90
7411;DHT22;3747;48.628;9.058;2023-11-21T15:13:18;7.20;99.90
7411;DHT22;3747;48.628;9.058;2023-11-21T15:15:46;7.20;99.90
7411;DHT22;3747;48.628;9.058;2023-11-21T15:18:12;7.10;99.90
7411;DHT22;3747;48.628;9.058;2023-11-21T15:20:39;7.10;99.90
7411;DHT22;3747;48.628;9.058;2023-11-21T15:23:06;7.10;99.90
7411;DHT22;3747;48.628;9.058;2023-11-21T15:25:34;7.00;99.90
7411;DHT22;3747;48.628;9.058;2023-11-21T15:28:02;7.00;99.90
7411;DHT22;3747;48.628;9.058;2023-11-21T15:30:30;6.90;99.90
7411;DHT22;3747;48.628;9.058;2023-11-21T15:32:57;6.90;99.90
7411;DHT22;3747;48.628;9.058;2023-11-21T15:35:24;6.90;99.90
7411;DHT22;3747;48.628;9.058;2023-11-21T15:37:53;6.90;99.90
7411;DHT22;3747;48.628;9.058;2023-11-21T15:40:19;6.90;99.90
7411;DHT22;3747;48.628;9.058;2023-11-21T15:42:46;6.90;99.90
7411;DHT22;3747;48.628;9.058;2023-11-21T15:45:15;6.90;99.90
7411;DHT22;3747;48.628;9.058;2023-11-21T15:47:44;6.90;99.90
7411;DHT22;3747;48.628;9.058;2023-11-21T15:50:11;6.90;99.90
7411;DHT22;3747;48.628;9.058;2023-11-21T15:52:39;7.00;99.90
7411;DHT22;3747;48.628;9.058;2023-11-21T15:55:06;6.90;99.90
7411;DHT22;3747;48.628;9.058;2023-11-21T15:57:32;6.90;99.90
7411;DHT22;3747;48.628;9.058;2023-11-21T15:59:59;6.90;99.90
7411;DHT22;3747;48.628;9.058;2023-11-21T16:02:27;6.90;99.90
7411;DHT22;3747;48.628;9.058;2023-11-21T16:04:55;6.90;99.90
7411;DHT22;3747;48.628;9.058;2023-11-21T16:07:22;6.90;99.90
7411;DHT22;3747;48.628;9.058;2023-11-21T16:09:49;6.90;99.90
7411;DHT22;3747;48.628;9.058;2023-11-21T16:12:16;6.90;99.90
7411;DHT22;3747;48.628;9.058;2023-11-21T16:14:43;6.90;99.90
7411;DHT22;3747;48.628;9.058;2023-11-21T16:17:12;6.90;99.90
7411;DHT22;3747;48.628;9.058;2023-11-21T16:19:40;6.90;99.90
7411;DHT22;3747;48.628;9.058;2023-11-21T16:22:07;6.90;99.90
7411;DHT22;3747;48.628;9.058;2023-11-21T16:24:34;6.90;99.90
7411;DHT22;3747;48.628;9.058;2023-11-21T16:27:02;6.80;99.90